Terminal Aerodrome Forecast
Issued by NWS

Home | Current Version | Previous Version | Graphics & Text | Print | Product List | Glossary On
Versions: 1 2 3 4 5 6 7 8 9 10 11 12 13 14 15 16 17 18 19 20 21 22 23 24 25 26 27 28 29 30 31 32 33 34 35
000
FTUS43 KLOT 152300
TAFORD
TAF
KORD 152326Z 1600/1706 13010KT 3SM -DZ BR OVC007
     FM160400 15007KT 2SM -DZ BR VCSH OVC003
     FM160900 VRB04KT 1 1/2SM -SHRADZ BR OVC003
     FM161500 29011KT 5SM -SHRADZ BR OVC007
     FM161900 31013G22KT P6SM OVC015
     FM170000 30010G18KT P6SM OVC025=

USA.gov is the U.S. government's official web portal to all federal, state and local government web resources and services.